createdAt,value
2023-05-22T00:00:03.809Z,88.06
2023-05-22T00:01:03.180Z,89.67
2023-05-22T00:02:03.724Z,89.26
2023-05-22T00:03:03.407Z,88.26
2023-05-22T00:04:03.798Z,87.05
2023-05-22T00:05:02.329Z,86.44
2023-05-22T00:06:02.245Z,86.35
2023-05-22T00:07:01.840Z,86.04
2023-05-22T00:08:01.975Z,87.05
2023-05-22T00:09:02.144Z,87.55
2023-05-22T00:10:02.255Z,87.25
2023-05-22T00:11:02.546Z,88.70
2023-05-22T00:12:02.347Z,88.60
2023-05-22T00:13:02.266Z,89.91
2023-05-22T00:14:02.460Z,89.21
2023-05-22T00:15:02.857Z,88.81
2023-05-22T00:16:02.851Z,88.60
2023-05-22T00:17:03.125Z,88.50
2023-05-22T00:18:03.128Z,88.10
2023-05-22T00:19:02.724Z,87.60
2023-05-22T00:20:01.856Z,87.60
2023-05-22T00:21:02.100Z,87.49
2023-05-22T00:22:01.948Z,87.90
2023-05-22T00:23:01.915Z,87.49
2023-05-22T00:24:01.952Z,87.80
2023-05-22T00:25:02.019Z,88.70
2023-05-22T00:26:02.452Z,89.41
2023-05-22T00:27:01.911Z,89.86
2023-05-22T00:28:02.045Z,89.86
2023-05-22T00:29:02.160Z,91.06
2023-05-22T00:30:02.141Z,90.81
2023-05-22T00:31:01.985Z,90.50
2023-05-22T00:32:02.479Z,90.06
2023-05-22T00:33:02.697Z,90.66
2023-05-22T00:34:02.346Z,90.61
2023-05-22T00:35:02.891Z,90.00
2023-05-22T00:36:02.588Z,89.50
2023-05-22T00:37:02.679Z,88.54
2023-05-22T00:38:02.896Z,88.95
2023-05-22T00:39:02.507Z,89.25
2023-05-22T00:40:03.035Z,89.75
2023-05-22T00:41:02.865Z,89.95
2023-05-22T00:42:02.484Z,90.20
2023-05-22T00:43:02.629Z,90.91
2023-05-22T00:44:02.801Z,91.41
2023-05-22T00:45:02.229Z,91.71
2023-05-22T00:46:02.260Z,91.11
2023-05-22T00:47:02.113Z,90.41
2023-05-22T00:48:02.197Z,89.79
2023-05-22T00:49:02.445Z,90.24
2023-05-22T00:50:02.277Z,90.10
2023-05-22T00:51:02.411Z,90.30
2023-05-22T00:52:02.557Z,90.61
2023-05-22T00:53:02.230Z,90.70
2023-05-22T00:54:02.499Z,91.15
2023-05-22T00:55:02.602Z,91.15
2023-05-22T00:56:02.729Z,91.96
2023-05-22T00:57:02.987Z,91.86
2023-05-22T00:58:02.900Z,91.05
2023-05-22T00:59:02.906Z,91.60
2023-05-22T01:00:02.121Z,91.86
2023-05-22T01:01:02.387Z,90.34
2023-05-22T01:02:02.290Z,89.84
2023-05-22T01:03:02.383Z,89.23
2023-05-22T01:04:02.424Z,88.53
2023-05-22T01:05:02.342Z,88.23
2023-05-22T01:06:02.902Z,89.34
2023-05-22T01:07:02.724Z,89.64
2023-05-22T01:08:02.126Z,89.84
2023-05-22T01:09:02.249Z,89.54
2023-05-22T01:10:02.195Z,90.24
2023-05-22T01:11:02.678Z,90.34
2023-05-22T01:12:02.906Z,90.14
2023-05-22T01:13:02.759Z,89.74
2023-05-22T01:14:02.474Z,90.04
2023-05-22T01:15:02.592Z,90.79
2023-05-22T01:16:02.735Z,91.30
2023-05-22T01:17:02.350Z,91.30
2023-05-22T01:18:02.502Z,91.34
2023-05-22T01:19:02.435Z,91.44
2023-05-22T01:20:02.339Z,91.24
2023-05-22T01:21:02.109Z,91.54
2023-05-22T01:22:02.659Z,91.34
2023-05-22T01:23:02.515Z,92.25
2023-05-22T01:24:02.675Z,92.45
2023-05-22T01:25:02.416Z,91.94
2023-05-22T01:26:02.535Z,91.64
2023-05-22T01:27:02.571Z,92.05
2023-05-22T01:28:02.436Z,91.64
2023-05-22T01:29:02.636Z,91.54
2023-05-22T01:30:02.849Z,91.85
2023-05-22T01:31:02.978Z,90.94
2023-05-22T01:32:02.550Z,91.64
2023-05-22T01:33:02.810Z,90.79
2023-05-22T01:34:03.037Z,90.59
2023-05-22T01:35:03.180Z,89.88
2023-05-22T01:36:03.170Z,90.19
2023-05-22T01:37:03.058Z,89.68
2023-05-22T01:38:03.459Z,89.32
2023-05-22T01:39:03.313Z,89.07
2023-05-22T01:40:02.412Z,89.48
2023-05-22T01:41:03.060Z,89.68
2023-05-22T01:42:02.927Z,90.12
2023-05-22T01:43:02.993Z,89.52
2023-05-22T01:44:02.917Z,88.92
2023-05-22T01:45:03.308Z,89.32
2023-05-22T01:46:02.955Z,88.81
2023-05-22T01:47:02.819Z,88.31
2023-05-22T01:48:02.963Z,88.21
2023-05-22T01:49:02.982Z,87.81
2023-05-22T01:50:02.676Z,87.50
2023-05-22T01:51:02.459Z,87.60
2023-05-22T01:52:02.582Z,87.50
2023-05-22T01:53:02.917Z,87.90
2023-05-22T01:54:02.484Z,89.12
2023-05-22T01:55:03.315Z,89.62
2023-05-22T01:56:03.472Z,89.72
2023-05-22T01:57:03.047Z,89.72
2023-05-22T01:58:03.509Z,90.12
2023-05-22T01:59:03.326Z,90.53
2023-05-22T02:00:02.248Z,90.78
2023-05-22T02:01:02.147Z,91.18
2023-05-22T02:02:02.383Z,90.88
2023-05-22T02:03:02.784Z,90.88
2023-05-22T02:04:02.711Z,91.08
2023-05-22T02:05:02.806Z,91.58
2023-05-22T02:06:02.700Z,91.18
2023-05-22T02:07:02.608Z,90.98
2023-05-22T02:08:02.811Z,90.17
2023-05-22T02:09:02.629Z,89.97
2023-05-22T02:10:02.975Z,90.67
2023-05-22T02:11:02.858Z,91.18
2023-05-22T02:12:02.535Z,91.38
2023-05-22T02:13:02.898Z,91.58
2023-05-22T02:14:03.047Z,91.58
2023-05-22T02:15:02.849Z,90.78
2023-05-22T02:16:02.949Z,91.18
2023-05-22T02:17:02.674Z,90.58
2023-05-22T02:18:02.541Z,90.27
2023-05-22T02:19:02.681Z,89.97
2023-05-22T02:20:02.778Z,89.46
2023-05-22T02:21:02.732Z,90.07
2023-05-22T02:22:03.060Z,90.27
2023-05-22T02:23:03.144Z,90.07
2023-05-22T02:24:03.002Z,90.07
2023-05-22T02:25:02.848Z,90.37
2023-05-22T02:26:03.274Z,91.02
2023-05-22T02:27:03.267Z,91.53
2023-05-22T02:28:03.198Z,91.63
2023-05-22T02:29:03.040Z,91.83
2023-05-22T02:30:03.265Z,92.44
2023-05-22T02:31:03.362Z,93.08
2023-05-22T02:32:03.228Z,93.49
2023-05-22T02:33:03.143Z,93.49
2023-05-22T02:34:03.050Z,93.43
2023-05-22T02:35:03.217Z,93.54
2023-05-22T02:36:03.021Z,93.63
2023-05-22T02:37:03.276Z,92.93
2023-05-22T02:38:03.430Z,92.72
2023-05-22T02:39:03.395Z,92.58
2023-05-22T02:40:03.134Z,92.08
2023-05-22T02:41:03.229Z,91.87
2023-05-22T02:42:02.857Z,91.47
2023-05-22T02:43:03.270Z,91.27
2023-05-22T02:44:02.972Z,91.87
2023-05-22T02:45:02.608Z,91.16
2023-05-22T02:46:03.010Z,90.56
2023-05-22T02:47:03.013Z,91.06
2023-05-22T02:48:02.973Z,91.47
2023-05-22T02:49:02.931Z,91.77
2023-05-22T02:50:03.497Z,91.16
2023-05-22T02:51:03.349Z,90.76
2023-05-22T02:52:03.497Z,90.25
2023-05-22T02:53:03.640Z,89.75
2023-05-22T02:54:03.483Z,89.85
2023-05-22T02:55:02.641Z,90.25
2023-05-22T02:56:02.748Z,90.86
2023-05-22T02:57:02.389Z,91.27
2023-05-22T02:58:02.591Z,91.51
2023-05-22T02:59:02.739Z,91.11
2023-05-22T03:00:03.321Z,90.91
2023-05-22T03:01:03.289Z,90.80
2023-05-22T03:02:03.206Z,92.22
2023-05-22T03:03:02.911Z,93.03
2023-05-22T03:04:03.190Z,92.42
2023-05-22T03:05:02.850Z,92.32
2023-05-22T03:06:03.056Z,92.63
2023-05-22T03:07:03.255Z,92.22
2023-05-22T03:08:02.944Z,92.32
2023-05-22T03:09:03.105Z,92.67
2023-05-22T03:10:02.392Z,92.97
2023-05-22T03:11:02.412Z,93.48
2023-05-22T03:12:02.671Z,93.78
2023-05-22T03:13:02.677Z,92.97
2023-05-22T03:14:02.389Z,92.16
2023-05-22T03:15:03.276Z,91.75
2023-05-22T03:16:03.165Z,91.46
2023-05-22T03:17:03.142Z,91.31
2023-05-22T03:18:03.150Z,91.51
2023-05-22T03:19:03.518Z,92.26
2023-05-22T03:20:03.096Z,92.36
2023-05-22T03:21:03.273Z,92.77
2023-05-22T03:22:03.421Z,94.03
2023-05-22T03:23:03.632Z,94.94
2023-05-22T03:24:03.550Z,94.64
2023-05-22T03:25:03.708Z,94.13
2023-05-22T03:26:03.750Z,93.48
2023-05-22T03:27:03.563Z,92.97
2023-05-22T03:28:03.626Z,93.18
2023-05-22T03:29:03.147Z,92.47
2023-05-22T03:30:02.309Z,92.36
2023-05-22T03:31:02.483Z,92.16
2023-05-22T03:32:02.869Z,91.86
2023-05-22T03:33:02.346Z,91.75
2023-05-22T03:34:02.466Z,91.66
2023-05-22T03:35:02.666Z,91.55
2023-05-22T03:36:02.887Z,92.97
2023-05-22T03:37:03.114Z,91.55
2023-05-22T03:38:03.055Z,91.86
2023-05-22T03:39:03.078Z,92.36
2023-05-22T03:40:02.324Z,92.16
2023-05-22T03:41:02.484Z,92.16
2023-05-22T03:42:02.681Z,92.77
2023-05-22T03:43:02.366Z,92.97
2023-05-22T03:44:02.611Z,93.38
2023-05-22T03:45:02.831Z,93.68
2023-05-22T03:46:03.136Z,93.78
2023-05-22T03:47:02.745Z,93.58
2023-05-22T03:48:03.249Z,93.52
2023-05-22T03:49:02.995Z,94.13
2023-05-22T03:50:03.257Z,93.93
2023-05-22T03:51:03.580Z,93.42
2023-05-22T03:52:03.216Z,92.91
2023-05-22T03:53:03.326Z,92.51
2023-05-22T03:54:03.677Z,92.51
2023-05-22T03:55:03.307Z,91.86
2023-05-22T03:56:03.383Z,91.25
2023-05-22T03:57:02.873Z,91.15
2023-05-22T03:58:03.126Z,90.99
2023-05-22T03:59:03.347Z,91.05
2023-05-22T04:00:03.219Z,90.44
2023-05-22T04:01:03.659Z,91.55
2023-05-22T04:02:03.676Z,91.86
2023-05-22T04:03:03.765Z,92.36
2023-05-22T04:04:03.327Z,92.16
2023-05-22T04:05:03.076Z,92.57
2023-05-22T04:06:02.556Z,92.77
2023-05-22T04:07:03.078Z,92.77
2023-05-22T04:08:02.412Z,92.87
2023-05-22T04:09:02.653Z,93.12
2023-05-22T04:10:02.894Z,93.42
2023-05-22T04:11:02.726Z,92.82
2023-05-22T04:12:02.974Z,92.31
2023-05-22T04:13:02.891Z,93.02
2023-05-22T04:14:03.221Z,93.46
2023-05-22T04:15:02.531Z,94.07
2023-05-22T04:16:02.905Z,93.77
2023-05-22T04:17:02.559Z,93.26
2023-05-22T04:18:02.436Z,93.02
2023-05-22T04:19:02.817Z,92.71
2023-05-22T04:20:02.842Z,92.82
2023-05-22T04:21:03.096Z,93.42
2023-05-22T04:22:02.640Z,93.12
2023-05-22T04:23:03.114Z,93.32
2023-05-22T04:24:02.732Z,93.57
2023-05-22T04:25:03.174Z,93.52
2023-05-22T04:26:02.817Z,93.12
2023-05-22T04:27:03.093Z,93.87
2023-05-22T04:28:02.790Z,93.97
2023-05-22T04:29:03.143Z,94.07
2023-05-22T04:30:02.568Z,93.67
2023-05-22T04:31:02.547Z,93.06
2023-05-22T04:32:02.362Z,92.61
2023-05-22T04:33:02.586Z,92.21
2023-05-22T04:34:02.222Z,91.80
2023-05-22T04:35:02.548Z,91.39
2023-05-22T04:36:02.843Z,91.39
2023-05-22T04:37:02.555Z,91.50
2023-05-22T04:38:02.881Z,92.41
2023-05-22T04:39:02.883Z,92.61
2023-05-22T04:40:02.981Z,92.21
2023-05-22T04:41:02.883Z,91.70
2023-05-22T04:42:03.219Z,91.39
2023-05-22T04:43:03.151Z,91.25
2023-05-22T04:44:03.171Z,91.50
2023-05-22T04:45:03.177Z,91.75
2023-05-22T04:46:03.440Z,91.86
2023-05-22T04:47:04.332Z,91.75
2023-05-22T04:48:03.077Z,91.75
2023-05-22T04:49:03.288Z,91.35
2023-05-22T04:50:02.582Z,91.25
2023-05-22T04:51:02.510Z,91.46
2023-05-22T04:52:02.300Z,91.86
2023-05-22T04:53:02.335Z,91.15
2023-05-22T04:54:02.615Z,92.16
2023-05-22T04:55:04.590Z,92.06
2023-05-22T04:56:02.721Z,92.47
2023-05-22T04:57:02.888Z,93.22
2023-05-22T04:58:03.004Z,93.93
2023-05-22T04:59:02.693Z,93.22
2023-05-22T05:00:02.880Z,93.52
2023-05-22T05:01:03.026Z,93.32
2023-05-22T05:02:02.617Z,93.18
2023-05-22T05:03:03.296Z,92.97
2023-05-22T05:04:03.025Z,92.47
2023-05-22T05:05:03.340Z,92.87
2023-05-22T05:06:03.562Z,93.18
2023-05-22T05:07:03.368Z,92.67
2023-05-22T05:08:02.964Z,92.77
2023-05-22T05:09:03.594Z,93.27
2023-05-22T05:10:03.799Z,92.87
2023-05-22T05:11:03.418Z,92.47
2023-05-22T05:12:03.585Z,92.42
2023-05-22T05:13:03.492Z,92.12
2023-05-22T05:14:03.529Z,91.92
2023-05-22T05:15:03.269Z,91.71
2023-05-22T05:16:03.111Z,92.22
2023-05-22T05:17:03.476Z,91.92
2023-05-22T05:18:02.885Z,91.71
2023-05-22T05:19:02.947Z,92.83
2023-05-22T05:20:02.419Z,93.03
2023-05-22T05:21:02.596Z,93.23
2023-05-22T05:22:02.787Z,93.03
2023-05-22T05:23:02.901Z,93.23
2023-05-22T05:24:02.720Z,93.63
2023-05-22T05:25:03.324Z,93.33
2023-05-22T05:26:02.715Z,93.13
2023-05-22T05:27:03.104Z,92.58
2023-05-22T05:28:02.867Z,92.88
2023-05-22T05:29:03.197Z,92.99
2023-05-22T05:30:03.412Z,93.19
2023-05-22T05:31:03.108Z,93.08
2023-05-22T05:32:03.106Z,93.79
2023-05-22T05:33:03.588Z,93.90
2023-05-22T05:34:03.001Z,94.10
2023-05-22T05:35:03.089Z,93.90
2023-05-22T05:36:02.540Z,93.70
2023-05-22T05:37:02.590Z,93.44
2023-05-22T05:38:02.629Z,94.50
2023-05-22T05:39:02.920Z,94.66
2023-05-22T05:40:03.189Z,94.06
2023-05-22T05:41:02.910Z,93.44
2023-05-22T05:42:02.845Z,93.60
2023-05-22T05:43:03.024Z,93.71
2023-05-22T05:44:02.939Z,94.26
2023-05-22T05:45:03.032Z,94.56
2023-05-22T05:46:03.384Z,94.42
2023-05-22T05:47:02.845Z,94.42
2023-05-22T05:48:03.545Z,94.21
2023-05-22T05:49:03.093Z,94.11
2023-05-22T05:50:03.820Z,93.66
2023-05-22T05:51:03.840Z,93.87
2023-05-22T05:52:03.446Z,94.07
2023-05-22T05:53:03.540Z,94.27
2023-05-22T05:54:03.359Z,94.17
2023-05-22T05:55:03.101Z,94.07
2023-05-22T05:56:03.602Z,93.82
2023-05-22T05:57:03.048Z,94.23
2023-05-22T05:58:03.493Z,93.82
2023-05-22T05:59:02.879Z,93.72
2023-05-22T06:00:03.681Z,93.62
2023-05-22T06:01:03.780Z,93.48
2023-05-22T06:02:03.733Z,92.97
2023-05-22T06:03:03.759Z,93.27
2023-05-22T06:04:03.351Z,92.93
2023-05-22T06:05:02.976Z,93.02
2023-05-22T06:06:02.384Z,93.13
2023-05-22T06:07:02.893Z,92.93
2023-05-22T06:08:02.823Z,92.42
2023-05-22T06:09:02.362Z,92.58
2023-05-22T06:10:02.458Z,92.78
2023-05-22T06:11:01.757Z,92.98
2023-05-22T06:12:01.864Z,93.18
2023-05-22T06:13:01.730Z,93.08
2023-05-22T06:14:02.128Z,92.83
2023-05-22T06:15:02.382Z,92.94
2023-05-22T06:16:05.677Z,92.74
2023-05-22T06:17:02.778Z,92.23
2023-05-22T06:18:02.785Z,91.89
2023-05-22T06:19:02.777Z,91.28
2023-05-22T06:20:02.438Z,91.58
2023-05-22T06:21:02.510Z,91.34
2023-05-22T06:22:02.587Z,90.73
2023-05-22T06:23:02.597Z,90.53
2023-05-22T06:24:03.047Z,89.99
2023-05-22T06:25:02.407Z,91.09
2023-05-22T06:26:02.068Z,90.09
2023-05-22T06:27:02.410Z,90.29
2023-05-22T06:28:02.089Z,90.05
2023-05-22T06:29:02.414Z,91.05
2023-05-22T06:30:04.622Z,90.95
2023-05-22T06:31:02.910Z,90.65
2023-05-22T06:32:02.728Z,90.45
2023-05-22T06:33:02.862Z,90.34
2023-05-22T06:34:02.656Z,90.55
2023-05-22T06:35:02.106Z,90.95
2023-05-22T06:36:02.161Z,90.50
2023-05-22T06:37:02.108Z,90.50
2023-05-22T06:38:02.116Z,90.70
2023-05-22T06:39:01.909Z,90.70
2023-05-22T06:40:02.006Z,90.41
2023-05-22T06:41:02.131Z,90.26
2023-05-22T06:42:02.074Z,89.66
2023-05-22T06:43:02.401Z,89.36
2023-05-22T06:44:02.070Z,89.31
2023-05-22T06:45:02.459Z,89.11
2023-05-22T06:46:03.042Z,89.51
2023-05-22T06:47:02.323Z,90.26
2023-05-22T06:48:02.964Z,90.12
2023-05-22T06:49:02.361Z,90.12
2023-05-22T06:50:01.696Z,90.12
2023-05-22T06:51:01.788Z,90.42
2023-05-22T06:52:04.497Z,90.52
2023-05-22T06:53:01.866Z,91.13
2023-05-22T06:54:02.290Z,91.52
2023-05-22T06:55:01.996Z,91.22
2023-05-22T06:56:02.228Z,91.32
2023-05-22T06:57:01.974Z,91.32
2023-05-22T06:58:02.515Z,90.62
2023-05-22T06:59:02.036Z,90.37
2023-05-22T07:00:02.029Z,90.28
2023-05-22T07:01:02.306Z,90.08
2023-05-22T07:02:02.128Z,90.17
2023-05-22T07:03:02.462Z,89.98
2023-05-22T07:04:02.622Z,90.28
2023-05-22T07:05:03.203Z,90.03
2023-05-22T07:06:02.669Z,89.73
2023-05-22T07:07:02.719Z,90.28
2023-05-22T07:08:02.887Z,90.58
2023-05-22T07:09:02.781Z,90.78
2023-05-22T07:10:02.471Z,90.58
2023-05-22T07:11:02.930Z,90.23
2023-05-22T07:12:02.392Z,89.94
2023-05-22T07:13:02.640Z,89.73
2023-05-22T07:14:02.796Z,89.33
2023-05-22T07:15:02.221Z,89.63
2023-05-22T07:16:02.161Z,89.29
2023-05-22T07:17:02.255Z,89.63
2023-05-22T07:18:02.281Z,90.23
2023-05-22T07:19:02.275Z,90.03
2023-05-22T07:20:02.499Z,90.33
2023-05-22T07:21:03.003Z,89.73
2023-05-22T07:22:02.794Z,89.49
2023-05-22T07:23:02.667Z,89.29
2023-05-22T07:24:02.584Z,88.89
2023-05-22T07:25:03.121Z,88.99
2023-05-22T07:26:03.151Z,89.63
2023-05-22T07:27:03.300Z,89.63
2023-05-22T07:28:02.974Z,89.94
2023-05-22T07:29:03.325Z,89.94
2023-05-22T07:30:03.003Z,90.09
2023-05-22T07:31:02.650Z,89.69
2023-05-22T07:32:02.923Z,89.18
2023-05-22T07:33:02.638Z,88.79
2023-05-22T07:34:02.702Z,88.89
2023-05-22T07:35:02.481Z,89.09
2023-05-22T07:36:02.420Z,88.95
2023-05-22T07:37:02.725Z,88.44
2023-05-22T07:38:02.328Z,88.64
2023-05-22T07:39:02.223Z,88.44
2023-05-22T07:40:02.673Z,88.54
2023-05-22T07:41:02.703Z,88.34
2023-05-22T07:42:02.407Z,88.34
2023-05-22T07:43:02.324Z,88.44
2023-05-22T07:44:02.620Z,88.75
2023-05-22T07:45:02.922Z,89.14
2023-05-22T07:46:03.111Z,89.59
2023-05-22T07:47:02.909Z,89.25
2023-05-22T07:48:02.849Z,88.95
2023-05-22T07:49:03.356Z,88.60
2023-05-22T07:50:02.785Z,88.30
2023-05-22T07:51:02.511Z,87.70
2023-05-22T07:52:02.291Z,87.50
2023-05-22T07:53:02.338Z,87.16
2023-05-22T07:54:02.856Z,87.05
2023-05-22T07:55:02.870Z,87.80
2023-05-22T07:56:02.934Z,88.40
2023-05-22T07:57:02.976Z,87.90
2023-05-22T07:58:03.213Z,87.40
2023-05-22T07:59:02.900Z,86.90
2023-05-22T08:00:02.739Z,87.10
2023-05-22T08:01:02.369Z,86.85
2023-05-22T08:02:02.899Z,87.05
2023-05-22T08:03:02.888Z,87.16
2023-05-22T08:04:03.066Z,87.16
2023-05-22T08:05:02.146Z,87.05
2023-05-22T08:06:02.336Z,86.76
2023-05-22T08:07:01.648Z,87.40
2023-05-22T08:08:02.155Z,87.55
2023-05-22T08:09:01.588Z,87.26
2023-05-22T08:10:02.605Z,87.16
2023-05-22T08:11:04.038Z,87.05
2023-05-22T08:12:02.311Z,86.91
2023-05-22T08:13:02.443Z,86.82
2023-05-22T08:14:02.587Z,87.02
2023-05-22T08:15:02.949Z,86.52
2023-05-22T08:16:02.753Z,86.52
2023-05-22T08:17:02.431Z,86.52
2023-05-22T08:18:02.924Z,86.68
2023-05-22T08:19:02.880Z,86.57
2023-05-22T08:20:03.199Z,86.07
2023-05-22T08:21:02.553Z,85.97
2023-05-22T08:22:02.817Z,85.47
2023-05-22T08:23:02.449Z,85.47
2023-05-22T08:24:03.028Z,85.43
2023-05-22T08:25:02.169Z,85.33
2023-05-22T08:26:02.232Z,85.33
2023-05-22T08:27:02.581Z,85.33
2023-05-22T08:28:02.318Z,84.33
2023-05-22T08:29:02.330Z,84.43
2023-05-22T08:30:02.666Z,85.13
2023-05-22T08:31:03.035Z,84.73
2023-05-22T08:32:03.106Z,84.63
2023-05-22T08:33:02.631Z,84.83
2023-05-22T08:34:03.016Z,84.19
2023-05-22T08:35:02.131Z,84.39
2023-05-22T08:36:02.180Z,83.89
2023-05-22T08:37:02.495Z,84.29
2023-05-22T08:38:02.610Z,84.35
2023-05-22T08:39:02.225Z,83.85
2023-05-22T08:40:02.652Z,84.15
2023-05-22T08:41:02.146Z,84.15
2023-05-22T08:42:02.171Z,83.51
2023-05-22T08:43:02.201Z,83.61
2023-05-22T08:44:02.148Z,83.11
2023-05-22T08:45:03.202Z,81.92
2023-05-22T08:46:02.815Z,81.92
2023-05-22T08:47:02.955Z,82.81
2023-05-22T08:48:03.161Z,83.41
2023-05-22T08:49:02.889Z,83.21
2023-05-22T08:50:02.677Z,82.81
2023-05-22T08:51:02.570Z,81.77
2023-05-22T08:52:02.526Z,82.51
2023-05-22T08:53:02.627Z,83.11
2023-05-22T08:54:02.120Z,83.27
2023-05-22T08:55:02.271Z,82.67
2023-05-22T08:56:02.698Z,82.14
2023-05-22T08:57:02.304Z,81.93
2023-05-22T08:58:02.193Z,81.90
2023-05-22T08:59:02.702Z,81.10
2023-05-22T09:00:03.085Z,81.00
2023-05-22T09:01:02.999Z,80.46
2023-05-22T09:02:04.388Z,80.76
2023-05-22T09:03:02.533Z,80.66
2023-05-22T09:04:02.664Z,80.52
2023-05-22T09:05:02.575Z,80.42
2023-05-22T09:06:02.086Z,79.19
2023-05-22T09:07:02.418Z,79.19
2023-05-22T09:08:16.175Z,79.79
2023-05-22T09:09:02.460Z,79.25
2023-05-22T09:10:02.165Z,78.65
2023-05-22T09:11:02.325Z,78.16
2023-05-22T09:12:02.701Z,78.22
2023-05-22T09:13:02.478Z,78.12
2023-05-22T09:14:02.436Z,76.62
2023-05-22T09:15:02.622Z,76.82
2023-05-22T09:16:02.901Z,76.43
2023-05-22T09:17:02.438Z,77.72
2023-05-22T09:18:02.965Z,76.62
2023-05-22T09:19:02.483Z,77.58
2023-05-22T09:20:02.928Z,77.28
2023-05-22T09:21:03.736Z,75.59
2023-05-22T09:22:02.996Z,76.49
2023-05-22T09:23:03.243Z,75.65
2023-05-22T09:24:03.532Z,75.85
2023-05-22T09:25:03.361Z,76.15
2023-05-22T09:26:02.583Z,76.42
2023-05-22T09:27:02.977Z,76.21
2023-05-22T09:28:02.502Z,75.68
2023-05-22T09:29:02.829Z,75.59
2023-05-22T09:30:02.207Z,74.19
2023-05-22T09:31:04.179Z,74.26
2023-05-22T09:32:02.744Z,74.46
2023-05-22T09:33:02.537Z,75.45
2023-05-22T09:34:02.187Z,74.26
2023-05-22T09:35:02.601Z,72.33
2023-05-22T09:36:03.000Z,73.43
2023-05-22T09:37:02.641Z,74.02
2023-05-22T09:38:02.735Z,72.83
2023-05-22T09:39:03.009Z,73.63
2023-05-22T09:40:02.866Z,71.91
2023-05-22T09:41:02.933Z,72.10
2023-05-22T09:42:03.040Z,71.74
2023-05-22T09:43:03.047Z,73.03
2023-05-22T09:44:02.935Z,73.19
2023-05-22T09:45:02.744Z,72.89
2023-05-22T09:46:02.759Z,71.91
2023-05-22T09:47:02.518Z,73.49
2023-05-22T09:48:02.711Z,72.70
2023-05-22T09:49:02.323Z,72.27
2023-05-22T09:50:03.295Z,72.47
2023-05-22T09:51:03.011Z,72.66
2023-05-22T09:52:02.971Z,72.47
2023-05-22T09:53:03.433Z,71.14
2023-05-22T09:54:03.557Z,70.54
2023-05-22T09:55:02.733Z,71.54
2023-05-22T09:56:03.174Z,72.13
2023-05-22T09:57:02.710Z,70.94
2023-05-22T09:58:03.218Z,70.94
2023-05-22T09:59:02.583Z,71.83
2023-05-22T10:00:03.147Z,70.15
2023-05-22T10:01:03.206Z,69.79
2023-05-22T10:02:03.250Z,70.48
2023-05-22T10:03:03.314Z,71.47
2023-05-22T10:04:03.156Z,70.68
2023-05-22T10:05:02.375Z,71.77
2023-05-22T10:06:02.525Z,69.89
2023-05-22T10:07:02.315Z,70.48
2023-05-22T10:08:02.443Z,69.79
2023-05-22T10:09:02.343Z,72.17
2023-05-22T10:10:03.446Z,72.33
2023-05-22T10:11:03.450Z,70.84
2023-05-22T10:12:02.874Z,71.24
2023-05-22T10:13:03.213Z,70.94
2023-05-22T10:14:03.323Z,69.76
2023-05-22T10:15:02.765Z,69.76
2023-05-22T10:16:02.891Z,69.85
2023-05-22T10:17:03.032Z,70.54
2023-05-22T10:18:03.160Z,69.46
2023-05-22T10:19:02.663Z,69.65
2023-05-22T10:20:02.501Z,69.65
2023-05-22T10:21:02.760Z,70.35
2023-05-22T10:22:02.617Z,69.92
2023-05-22T10:23:02.305Z,69.92
2023-05-22T10:24:02.706Z,69.42
2023-05-22T10:25:03.234Z,69.23
2023-05-22T10:26:03.111Z,68.93
2023-05-22T10:27:02.805Z,69.62
2023-05-22T10:28:03.251Z,69.62
2023-05-22T10:29:03.390Z,69.42
2023-05-22T10:30:02.953Z,69.32
2023-05-22T10:31:02.305Z,69.42
2023-05-22T10:32:02.424Z,68.63
2023-05-22T10:33:02.772Z,69.26
2023-05-22T10:34:02.935Z,69.53
2023-05-22T10:35:03.214Z,69.42
2023-05-22T10:36:03.111Z,69.23
2023-05-22T10:37:16.532Z,69.42
2023-05-22T10:38:02.935Z,67.94
2023-05-22T10:39:03.313Z,69.06
2023-05-22T10:40:02.920Z,70.25
2023-05-22T10:41:02.998Z,69.42
2023-05-22T10:42:02.826Z,67.84
2023-05-22T10:43:02.432Z,68.24
2023-05-22T10:44:02.986Z,68.07
2023-05-22T10:45:02.704Z,67.97
2023-05-22T10:46:02.912Z,69.06
2023-05-22T10:47:03.047Z,67.77
2023-05-22T10:48:02.985Z,69.26
2023-05-22T10:49:02.817Z,69.62
2023-05-22T10:50:02.782Z,68.04
2023-05-22T10:51:02.944Z,69.02
2023-05-22T10:52:02.594Z,68.33
2023-05-22T10:53:02.898Z,68.13
2023-05-22T10:54:02.773Z,68.43
2023-05-22T10:55:03.133Z,68.73
2023-05-22T10:56:03.323Z,68.99
2023-05-22T10:57:02.844Z,68.90
2023-05-22T10:58:04.959Z,68.01
2023-05-22T10:59:03.318Z,67.71
2023-05-22T11:00:03.064Z,67.21
2023-05-22T11:01:02.804Z,68.04
2023-05-22T11:02:03.043Z,69.02
2023-05-22T11:03:13.534Z,68.83
2023-05-22T11:04:03.174Z,67.24
2023-05-22T11:05:02.800Z,67.44
2023-05-22T11:06:02.803Z,68.33
2023-05-22T11:07:02.730Z,67.94
2023-05-22T11:08:02.351Z,68.24
2023-05-22T11:09:02.574Z,68.63
2023-05-22T11:10:02.924Z,68.43
2023-05-22T11:11:02.516Z,67.05
2023-05-22T11:12:02.660Z,67.35
2023-05-22T11:13:03.081Z,68.04
2023-05-22T11:14:02.557Z,67.24
2023-05-22T11:15:03.151Z,67.94
2023-05-22T11:16:02.741Z,68.33
2023-05-22T11:17:03.005Z,67.54
2023-05-22T11:18:02.955Z,68.04
2023-05-22T11:19:21.184Z,67.94
2023-05-22T11:20:03.160Z,68.63
2023-05-22T11:21:02.795Z,66.75
2023-05-22T11:22:02.987Z,67.44
2023-05-22T11:23:03.286Z,66.85
2023-05-22T11:24:03.209Z,68.99
2023-05-22T11:25:03.423Z,69.59
2023-05-22T11:26:03.261Z,66.72
2023-05-22T11:27:03.291Z,67.11
2023-05-22T11:28:03.441Z,66.91
2023-05-22T11:29:03.228Z,66.91
2023-05-22T11:30:02.796Z,67.11
2023-05-22T11:31:02.479Z,66.98
2023-05-22T11:32:02.840Z,66.98
2023-05-22T11:33:02.790Z,66.39
2023-05-22T11:34:02.543Z,65.70
2023-05-22T11:35:03.381Z,66.16
2023-05-22T11:36:03.163Z,64.87
2023-05-22T11:37:02.932Z,65.59
2023-05-22T11:38:03.153Z,65.03
2023-05-22T11:39:03.223Z,67.11
2023-05-22T11:40:02.669Z,66.22
2023-05-22T11:41:02.222Z,67.77
2023-05-22T11:42:02.339Z,67.28
2023-05-22T11:43:02.382Z,67.97
2023-05-22T11:44:02.328Z,66.46
2023-05-22T11:45:02.980Z,66.16
2023-05-22T11:46:03.027Z,64.97
2023-05-22T11:47:02.936Z,65.47
2023-05-22T11:48:02.760Z,64.48
2023-05-22T11:49:02.968Z,65.86
2023-05-22T11:50:03.375Z,65.04
2023-05-22T11:51:02.691Z,65.56
2023-05-22T11:52:03.270Z,65.07
2023-05-22T11:53:02.753Z,64.87
2023-05-22T11:54:02.750Z,64.01
2023-05-22T11:55:03.448Z,65.10
2023-05-22T11:56:03.293Z,66.29
2023-05-22T11:57:03.487Z,67.47
2023-05-22T11:58:03.382Z,66.58
2023-05-22T11:59:03.070Z,66.26
2023-05-22T12:00:02.262Z,65.07
2023-05-22T12:01:02.417Z,66.36
2023-05-22T12:02:02.628Z,65.07
2023-05-22T12:03:02.658Z,65.50
2023-05-22T12:04:02.740Z,65.30
2023-05-22T12:05:02.714Z,66.95
2023-05-22T12:06:03.507Z,65.17
2023-05-22T12:07:03.083Z,66.16
2023-05-22T12:08:03.315Z,64.87
2023-05-22T12:09:03.416Z,65.86
2023-05-22T12:10:03.249Z,65.93
2023-05-22T12:11:02.490Z,64.74
2023-05-22T12:12:02.708Z,65.34
2023-05-22T12:13:02.499Z,65.73
2023-05-22T12:14:02.391Z,65.20
2023-05-22T12:15:02.549Z,64.91
2023-05-22T12:16:03.146Z,65.50
2023-05-22T12:17:02.918Z,64.22
2023-05-22T12:18:03.107Z,63.46
2023-05-22T12:19:02.892Z,65.07
2023-05-22T12:20:02.890Z,65.63
2023-05-22T12:21:03.666Z,65.14
2023-05-22T12:22:03.420Z,64.45
2023-05-22T12:23:03.357Z,64.74
2023-05-22T12:24:03.385Z,64.64
2023-05-22T12:25:03.541Z,64.35
2023-05-22T12:26:02.840Z,64.25
2023-05-22T12:27:02.745Z,64.42
2023-05-22T12:28:03.146Z,64.42
2023-05-22T12:29:03.230Z,64.51
2023-05-22T12:30:02.906Z,64.12
2023-05-22T12:31:03.781Z,63.72
2023-05-22T12:32:03.393Z,64.68
2023-05-22T12:33:03.821Z,63.49
2023-05-22T12:34:03.423Z,63.10
2023-05-22T12:35:03.700Z,62.74
2023-05-22T12:36:02.473Z,64.42
2023-05-22T12:37:02.510Z,63.99
2023-05-22T12:38:02.624Z,63.20
2023-05-22T12:39:02.668Z,63.59
2023-05-22T12:40:03.088Z,63.89
2023-05-22T12:41:02.718Z,63.03
2023-05-22T12:42:03.064Z,63.33
2023-05-22T12:43:03.134Z,64.42
2023-05-22T12:44:03.019Z,63.92
2023-05-22T12:45:02.676Z,63.62
2023-05-22T12:46:03.235Z,63.72
2023-05-22T12:47:03.709Z,64.61
2023-05-22T12:48:03.183Z,64.18
2023-05-22T12:49:03.464Z,64.58
2023-05-22T12:50:03.710Z,64.78
2023-05-22T12:51:03.780Z,64.78
2023-05-22T12:52:03.317Z,63.59